Time;durP1;ratioP1;P1;durP2;ratioP2;P2;SDS_P1;SDS_P2;PMS_P1;PMS_P2;Temp;Humidity;BMP_temperature;BMP_pressure;BME280_temperature;BME280_humidity;BME280_pressure;Samples;Min_cycle;Max_cycle;Signal;HPM_P1;HPM_P2
2022/09/20 00:02:16;;;;;;;12.32;2.25;;;14.00;99.90;;;;;;5030794;28;20052;-63
2022/09/20 00:04:42;;;;;;;17.70;2.30;;;14.10;99.90;;;;;;5030987;28;20038;-62
2022/09/20 00:07:07;;;;;;;13.52;2.30;;;13.80;99.90;;;;;;5030194;28;20040;-62
2022/09/20 00:09:33;;;;;;;11.50;2.75;;;14.10;99.90;;;;;;5030386;28;20033;-62
2022/09/20 00:11:58;;;;;;;14.05;2.08;;;13.90;99.90;;;;;;5030604;28;20060;-63
2022/09/20 00:14:24;;;;;;;8.50;1.98;;;13.80;99.90;;;;;;5030659;28;20041;-62
2022/09/20 00:16:49;;;;;;;11.48;2.22;;;13.80;99.90;;;;;;5030620;28;20103;-62
2022/09/20 00:19:19;;;;;;;8.90;1.85;;;14.10;99.90;;;;;;5030643;28;20551;-62
2022/09/20 00:21:45;;;;;;;8.10;1.55;;;14.10;99.90;;;;;;5030557;28;20037;-62
2022/09/20 00:24:10;;;;;;;10.45;1.98;;;13.70;99.90;;;;;;5030268;28;20045;-62
2022/09/20 00:26:36;;;;;;;8.82;1.60;;;13.60;99.90;;;;;;5030191;28;20112;-62
2022/09/20 00:29:03;;;;;;;8.15;1.70;;;13.70;99.90;;;;;;5030864;28;20117;-62
2022/09/20 00:31:28;;;;;;;9.88;1.60;;;13.60;99.90;;;;;;5030367;28;20041;-62
2022/09/20 00:36:40;;;;;;;10.93;1.70;;;13.10;99.90;;;;;;5030510;28;20064;-62
2022/09/20 00:39:08;;;;;;;13.68;2.80;;;13.10;99.90;;;;;;5030715;28;20034;-63
2022/09/20 00:41:33;;;;;;;9.27;1.60;;;13.20;99.90;;;;;;5030439;28;20045;-62
2022/09/20 00:44:00;;;;;;;9.93;1.85;;;13.30;99.90;;;;;;5029691;28;20045;-62
2022/09/20 00:46:33;;;;;;;15.88;1.90;;;13.20;99.90;;;;;;5030440;28;20045;-62
2022/09/20 00:49:10;;;;;;;6.55;1.63;;;13.10;99.90;;;;;;5030521;28;20047;-62
2022/09/20 00:51:39;;;;;;;7.97;2.28;;;13.10;99.90;;;;;;5030198;28;20411;-62
2022/09/20 00:54:07;;;;;;;8.52;1.52;;;13.20;99.90;;;;;;5030748;28;20092;-62
2022/09/20 00:56:36;;;;;;;8.32;1.50;;;12.60;99.90;;;;;;5023427;28;20411;-62
2022/09/20 00:59:24;;;;;;;8.75;1.85;;;12.80;99.90;;;;;;5010935;28;20076;-62
2022/09/20 01:01:57;;;;;;;11.52;1.67;;;12.60;99.90;;;;;;5023212;28;20037;-62
2022/09/20 01:04:26;;;;;;;12.40;1.70;;;12.70;99.90;;;;;;5031960;28;20052;-62
2022/09/20 01:06:56;;;;;;;9.52;1.98;;;12.50;99.90;;;;;;5034077;28;20088;-62
2022/09/20 01:09:21;;;;;;;6.18;1.50;;;12.50;99.90;;;;;;5033883;28;20495;-62
2022/09/20 01:11:49;;;;;;;10.30;1.67;;;12.40;99.90;;;;;;5033386;28;20053;-62
2022/09/20 01:14:17;;;;;;;9.73;1.90;;;12.90;99.90;;;;;;5033378;28;20388;-62
2022/09/20 01:16:44;;;;;;;9.60;1.95;;;12.90;99.90;;;;;;5020639;28;20056;-63
2022/09/20 01:19:28;;;;;;;8.32;1.77;;;12.40;99.90;;;;;;5032296;28;20049;-62
2022/09/20 01:21:54;;;;;;;9.80;1.83;;;12.30;99.90;;;;;;5033390;28;20043;-63
2022/09/20 01:24:23;;;;;;;14.40;1.63;;;12.60;99.90;;;;;;5033212;28;20562;-63
2022/09/20 01:27:12;;;;;;;9.93;1.90;;;13.50;99.90;;;;;;5033023;28;20043;-63
2022/09/20 01:29:51;;;;;;;8.43;1.98;;;13.00;99.90;;;;;;5015599;28;20072;-63
2022/09/20 01:32:22;;;;;;;7.78;1.45;;;13.60;99.90;;;;;;5033181;28;20041;-63
2022/09/20 01:34:53;;;;;;;11.38;2.25;;;12.50;99.90;;;;;;5033286;28;20049;-62
2022/09/20 01:37:32;;;;;;;8.13;1.50;;;13.00;99.90;;;;;;5032812;28;20402;-62
2022/09/20 01:40:19;;;;;;;7.82;1.73;;;12.80;99.90;;;;;;5033736;28;20048;-62
2022/09/20 01:43:20;;;;;;;5.65;1.35;;;12.90;99.90;;;;;;5033146;28;20037;-63
2022/09/20 01:45:48;;;;;;;7.53;1.67;;;12.40;99.90;;;;;;5025171;28;20029;-62
2022/09/20 01:48:28;;;;;;;9.48;1.90;;;12.30;99.90;;;;;;5033283;28;20044;-62
2022/09/20 01:51:24;;;;;;;6.15;1.45;;;12.50;99.90;;;;;;5032863;28;20384;-63
2022/09/20 01:54:08;;;;;;;8.17;1.27;;;12.40;99.90;;;;;;5027267;28;20083;-62
2022/09/20 01:57:19;;;;;;;9.55;1.58;;;12.70;99.90;;;;;;5027473;28;20092;-62
2022/09/20 02:00:07;;;;;;;7.72;1.38;;;12.90;99.90;;;;;;5032890;28;20040;-62
2022/09/20 02:02:44;;;;;;;4.68;1.17;;;12.70;99.90;;;;;;5032270;28;20034;-62
2022/09/20 02:05:54;;;;;;;7.80;1.45;;;12.50;99.90;;;;;;5032716;28;20041;-62
2022/09/20 02:08:40;;;;;;;6.60;1.27;;;13.00;99.90;;;;;;5032651;28;20072;-62
2022/09/20 02:11:13;;;;;;;8.15;1.42;;;12.50;99.90;;;;;;5012907;28;20398;-62
2022/09/20 02:13:39;;;;;;;5.55;1.33;;;12.70;99.90;;;;;;5030876;28;20423;-63
2022/09/20 02:16:34;;;;;;;8.75;1.52;;;13.20;99.90;;;;;;5031508;28;20034;-63
2022/09/20 02:19:38;;;;;;;10.75;2.00;;;13.30;99.90;;;;;;5014663;28;20038;-63
2022/09/20 02:22:12;;;;;;;10.05;1.67;;;13.10;99.90;;;;;;5017825;28;20030;-63
2022/09/20 02:24:49;;;;;;;10.38;1.65;;;13.20;99.90;;;;;;5032330;28;20072;-62
2022/09/20 02:27:40;;;;;;;8.73;1.75;;;13.30;99.90;;;;;;5031889;28;20049;-62
2022/09/20 02:30:40;;;;;;;8.35;1.45;;;13.40;99.90;;;;;;5012521;28;20041;-62
2022/09/20 02:33:51;;;;;;;5.43;1.40;;;13.20;99.90;;;;;;4958069;28;20128;-63
2022/09/20 02:36:32;;;;;;;7.15;1.13;;;13.30;99.90;;;;;;5021082;28;20124;-63
2022/09/20 02:39:14;;;;;;;8.00;1.50;;;12.70;99.90;;;;;;5032308;28;20045;-62
2022/09/20 02:41:49;;;;;;;9.23;1.52;;;13.40;99.90;;;;;;5031365;28;20511;-62
2022/09/20 02:44:23;;;;;;;3.70;1.00;;;13.40;99.90;;;;;;5031915;28;20033;-63
2022/09/20 02:47:19;;;;;;;5.47;1.30;;;13.10;99.90;;;;;;5031842;28;20507;-63
2022/09/20 02:50:11;;;;;;;5.38;1.40;;;12.90;99.90;;;;;;5031688;28;20049;-62
2022/09/20 02:53:06;;;;;;;5.68;1.40;;;13.20;99.90;;;;;;5031516;28;20395;-63
2022/09/20 02:56:00;;;;;;;8.77;1.48;;;12.90;99.90;;;;;;5031814;28;20054;-63
2022/09/20 02:58:38;;;;;;;3.90;1.20;;;13.30;99.90;;;;;;5030139;28;20048;-64
2022/09/20 03:01:15;;;;;;;4.07;1.15;;;13.60;99.90;;;;;;5031059;28;20485;-63
2022/09/20 03:04:10;;;;;;;7.20;1.27;;;13.60;99.90;;;;;;5031343;28;20498;-63
2022/09/20 03:06:42;;;;;;;5.82;1.30;;;13.00;99.90;;;;;;5031817;28;20053;-63
2022/09/20 03:09:32;;;;;;;13.88;2.25;;;13.00;99.90;;;;;;5031240;28;20120;-63
2022/09/20 03:12:36;;;;;;;8.10;1.40;;;13.60;99.90;;;;;;5031087;28;20080;-63
2022/09/20 03:15:26;;;;;;;9.82;1.40;;;13.20;99.90;;;;;;5010404;28;20057;-63
2022/09/20 03:18:13;;;;;;;5.10;1.30;;;13.40;99.90;;;;;;5031413;28;20060;-63
2022/09/20 03:21:00;;;;;;;10.40;1.40;;;13.50;99.90;;;;;;5030912;28;20495;-63
2022/09/20 03:24:07;;;;;;;8.38;1.50;;;12.90;99.90;;;;;;5028677;28;20434;-63
2022/09/20 03:26:52;;;;;;;4.93;1.10;;;13.50;99.90;;;;;;5031070;28;20040;-63
2022/09/20 03:29:39;;;;;;;5.57;1.17;;;13.40;99.90;;;;;;5030903;28;20531;-62
2022/09/20 03:32:34;;;;;;;6.25;1.52;;;13.50;99.90;;;;;;5030594;28;20533;-63
2022/09/20 03:35:22;;;;;;;8.73;1.60;;;13.10;99.90;;;;;;5031312;28;20045;-62
2022/09/20 03:37:53;;;;;;;15.68;2.00;;;13.60;99.90;;;;;;5031170;28;20072;-63
2022/09/20 03:40:19;;;;;;;7.65;1.73;;;13.10;99.90;;;;;;5031152;28;20041;-62
2022/09/20 03:42:56;;;;;;;13.40;2.00;;;12.80;99.90;;;;;;5030579;28;20034;-62
2022/09/20 03:45:38;;;;;;;7.05;1.50;;;12.80;99.90;;;;;;5030827;28;20054;-63
2022/09/20 03:48:21;;;;;;;6.57;1.30;;;13.40;99.90;;;;;;5030894;28;20056;-62
2022/09/20 03:50:55;;;;;;;9.73;1.60;;;13.10;99.90;;;;;;5030799;28;20041;-63
2022/09/20 03:53:50;;;;;;;9.18;1.80;;;13.10;99.90;;;;;;5030576;28;20033;-62
2022/09/20 03:56:19;;;;;;;12.57;2.00;;;13.30;99.90;;;;;;5026064;28;20034;-62
2022/09/20 03:59:35;;;;;;;14.75;1.95;;;12.80;99.90;;;;;;5025871;28;20064;-62
2022/09/20 04:02:15;;;;;;;9.27;1.50;;;13.20;99.90;;;;;;4956349;28;20043;-62
2022/09/20 04:04:54;;;;;;;12.07;1.75;;;12.70;99.90;;;;;;5028864;28;20369;-63
2022/09/20 04:07:29;;;;;;;8.05;1.70;;;13.10;99.90;;;;;;5030782;28;20566;-62
2022/09/20 04:10:24;;;;;;;6.50;1.35;;;13.40;99.90;;;;;;5030365;28;20075;-63
2022/09/20 04:13:11;;;;;;;5.60;1.60;;;13.50;99.90;;;;;;5030868;28;20049;-63
2022/09/20 04:16:02;;;;;;;8.63;1.67;;;12.80;99.90;;;;;;5030315;28;20541;-62
2022/09/20 04:18:39;;;;;;;9.40;1.90;;;13.40;99.90;;;;;;5021539;28;20079;-62
2022/09/20 04:21:27;;;;;;;11.68;2.00;;;13.20;99.90;;;;;;5030958;28;20309;-62
2022/09/20 04:24:08;;;;;;;11.15;1.52;;;13.20;99.90;;;;;;5029969;28;20462;-63
2022/09/20 04:26:50;;;;;;;7.15;1.42;;;13.20;99.90;;;;;;5030449;28;20096;-62
2022/09/20 04:29:28;;;;;;;13.50;2.08;;;13.00;99.90;;;;;;5030776;28;20127;-62
2022/09/20 04:32:15;;;;;;;9.20;1.88;;;13.00;99.90;;;;;;5030255;28;20037;-62
2022/09/20 04:37:55;;;;;;;13.05;1.77;;;13.60;99.90;;;;;;5008107;28;20080;-62
2022/09/20 04:40:41;;;;;;;5.68;1.42;;;13.30;99.90;;;;;;5014613;28;20379;-63
2022/09/20 04:43:34;;;;;;;13.02;2.03;;;13.20;99.90;;;;;;4999015;28;20135;-63
2022/09/20 04:46:44;;;;;;;8.07;1.50;;;13.10;99.90;;;;;;5034189;28;20043;-62
2022/09/20 04:49:45;;;;;;;7.03;1.50;;;13.60;99.90;;;;;;5016445;28;20033;-63
2022/09/20 04:52:22;;;;;;;7.75;1.40;;;13.60;99.90;;;;;;5034073;28;20163;-63
2022/09/20 04:55:29;;;;;;;6.03;1.50;;;13.60;99.90;;;;;;5033870;28;20042;-63
2022/09/20 04:58:19;;;;;;;7.07;1.60;;;13.50;99.90;;;;;;5021093;28;20045;-62
2022/09/20 05:01:15;;;;;;;7.53;1.60;;;13.50;99.90;;;;;;5033631;28;20080;-62
2022/09/20 05:03:43;;;;;;;9.48;1.40;;;13.20;99.90;;;;;;5033311;28;20125;-62
2022/09/20 05:06:34;;;;;;;10.00;1.58;;;13.10;99.90;;;;;;5033374;28;20072;-62
2022/09/20 05:09:18;;;;;;;6.30;1.30;;;13.60;99.90;;;;;;5034027;28;20049;-62
2022/09/20 05:12:01;;;;;;;6.03;1.27;;;13.60;99.90;;;;;;5031892;28;20557;-63
2022/09/20 05:15:06;;;;;;;11.80;1.35;;;13.10;99.90;;;;;;5033461;28;20177;-62
2022/09/20 05:17:43;;;;;;;6.47;1.58;;;13.60;99.90;;;;;;5033758;28;20033;-63
2022/09/20 05:20:22;;;;;;;11.18;1.52;;;13.00;99.90;;;;;;5033383;28;20045;-62
2022/09/20 05:22:57;;;;;;;8.20;1.65;;;13.00;99.90;;;;;;5032195;28;20041;-63
2022/09/20 05:25:44;;;;;;;11.15;1.55;;;13.30;99.90;;;;;;5013937;28;20488;-62
2022/09/20 05:28:48;;;;;;;9.52;1.90;;;13.20;99.90;;;;;;5033306;28;20492;-63
2022/09/20 05:31:27;;;;;;;9.30;1.83;;;13.60;99.90;;;;;;5032990;28;20447;-63
2022/09/20 05:34:20;;;;;;;11.73;1.85;;;13.50;99.90;;;;;;5032960;28;20116;-62
2022/09/20 05:37:00;;;;;;;10.95;1.83;;;13.10;99.90;;;;;;5026702;28;20238;-62
2022/09/20 05:39:53;;;;;;;6.35;1.60;;;12.90;99.90;;;;;;5033051;28;20030;-63
2022/09/20 05:43:04;;;;;;;11.65;1.90;;;13.00;99.90;;;;;;5033102;28;20490;-62
2022/09/20 05:45:57;;;;;;;10.05;1.73;;;12.70;99.90;;;;;;4998282;28;20499;-63
2022/09/20 05:48:56;;;;;;;11.15;1.75;;;12.80;99.90;;;;;;5033164;28;20088;-62
2022/09/20 05:51:42;;;;;;;9.18;1.92;;;12.70;99.90;;;;;;5031270;28;20033;-62
2022/09/20 05:54:14;;;;;;;;;;;13.30;99.90;;;;;;5032749;28;20037;-63
2022/09/20 05:57:14;;;;;;;6.40;1.60;;;13.30;99.90;;;;;;5025018;28;20011;-63
2022/09/20 06:00:12;;;;;;;7.88;2.00;;;12.70;99.90;;;;;;5005041;28;20053;-63
2022/09/20 06:02:57;;;;;;;10.13;1.92;;;13.00;99.90;;;;;;5032318;28;20041;-62
2022/09/20 06:05:32;;;;;;;11.50;1.70;;;13.50;99.90;;;;;;5023195;28;20077;-62
2022/09/20 06:08:13;;;;;;;14.55;1.95;;;13.30;99.90;;;;;;5032559;28;20112;-63
2022/09/20 06:11:14;;;;;;;15.32;1.73;;;13.70;99.90;;;;;;5031924;28;20037;-63
2022/09/20 06:14:02;;;;;;;9.63;1.50;;;13.40;99.90;;;;;;4959025;28;20091;-63
2022/09/20 06:16:41;;;;;;;10.93;1.60;;;13.40;99.90;;;;;;5031882;28;20029;-63
2022/09/20 06:19:44;;;;;;;9.63;1.55;;;13.60;99.90;;;;;;5032069;28;20053;-63
2022/09/20 06:22:20;;;;;;;8.90;1.50;;;14.10;99.90;;;;;;5024383;28;20491;-62
2022/09/20 06:25:07;;;;;;;10.35;1.65;;;14.20;99.90;;;;;;5026602;28;20049;-63
2022/09/20 06:28:05;;;;;;;8.90;1.50;;;14.10;99.90;;;;;;5032038;28;20561;-63
2022/09/20 06:30:34;;;;;;;12.23;2.03;;;14.20;99.90;;;;;;5032100;28;20037;-63
2022/09/20 06:33:06;;;;;;;10.25;1.50;;;14.30;99.90;;;;;;5032121;28;20120;-63
2022/09/20 06:41:25;;;;;;;8.88;1.52;;;14.20;99.90;;;;;;5032260;28;20380;-63
2022/09/20 06:41:52;;;;;;;8.32;1.80;;;14.10;99.90;;;;;;5031833;28;20117;-63
2022/09/20 06:44:17;;;;;;;8.45;2.00;;;14.60;99.90;;;;;;5049214;28;20044;-64
2022/09/20 06:46:43;;;;;;;7.95;1.50;;;13.90;99.90;;;;;;5033041;28;20124;-64
2022/09/20 06:49:09;;;;;;;11.85;1.67;;;14.40;99.90;;;;;;5032034;28;20092;-65
2022/09/20 06:51:36;;;;;;;14.90;2.60;;;14.20;99.90;;;;;;5031712;28;20415;-64
2022/09/20 06:54:04;;;;;;;7.35;1.33;;;14.30;99.90;;;;;;5031366;28;20041;-65
2022/09/20 06:56:35;;;;;;;8.00;1.55;;;14.60;99.90;;;;;;5024895;28;20116;-64
2022/09/20 06:59:02;;;;;;;6.80;1.48;;;14.50;99.90;;;;;;5027844;28;20033;-64
2022/09/20 07:01:27;;;;;;;10.02;1.48;;;14.30;99.90;;;;;;5030430;28;20037;-65
2022/09/20 07:03:53;;;;;;;9.95;1.90;;;14.40;99.90;;;;;;5031674;28;20037;-64
2022/09/20 07:06:18;;;;;;;6.53;1.60;;;14.70;99.90;;;;;;5031844;28;20499;-64
2022/09/20 07:08:45;;;;;;;10.95;1.83;;;14.50;99.90;;;;;;5031543;28;20075;-65
2022/09/20 07:11:16;;;;;;;9.60;1.95;;;14.60;99.90;;;;;;5012929;28;20083;-65
2022/09/20 07:13:48;;;;;;;9.90;1.58;;;14.90;99.90;;;;;;5031397;28;20049;-65
2022/09/20 07:16:14;;;;;;;8.65;2.65;;;14.70;99.90;;;;;;5031017;28;20384;-65
2022/09/20 07:18:40;;;;;;;6.00;1.67;;;15.00;99.90;;;;;;5031512;28;20079;-64
2022/09/20 07:21:13;;;;;;;6.38;1.70;;;15.20;99.90;;;;;;5030643;28;20025;-65
2022/09/20 07:23:39;;;;;;;6.53;1.58;;;14.90;99.90;;;;;;5031025;28;20053;-65
2022/09/20 07:26:06;;;;;;;15.38;1.65;;;15.30;99.90;;;;;;5031159;28;20034;-65
2022/09/20 07:28:33;;;;;;;6.50;1.38;;;15.00;99.90;;;;;;5018993;28;20092;-65
2022/09/20 07:30:59;;;;;;;11.85;2.53;;;15.10;99.90;;;;;;5024311;28;20116;-65
2022/09/20 07:33:25;;;;;;;8.23;1.52;;;15.30;99.90;;;;;;5028084;28;20120;-65
2022/09/20 07:35:55;;;;;;;9.02;2.20;;;15.70;99.90;;;;;;5030826;28;20083;-65
2022/09/20 07:38:21;;;;;;;8.95;1.73;;;15.70;99.90;;;;;;5030193;28;20052;-64
2022/09/20 07:40:58;;;;;;;7.25;1.63;;;15.80;99.90;;;;;;5028233;28;20472;-65
2022/09/20 07:43:24;;;;;;;8.20;2.08;;;15.80;99.90;;;;;;4997808;28;20156;-65
2022/09/20 07:45:54;;;;;;;4.22;1.38;;;15.40;99.90;;;;;;5030449;28;20049;-65
2022/09/20 07:48:26;;;;;;;5.57;1.40;;;15.60;99.90;;;;;;5022943;28;20045;-65
2022/09/20 07:50:54;;;;;;;4.90;1.25;;;15.30;99.90;;;;;;5030563;28;20072;-65
2022/09/20 07:53:19;;;;;;;7.90;1.33;;;15.60;99.90;;;;;;5030100;28;20737;-64
2022/09/20 07:55:57;;;;;;;8.10;1.80;;;15.50;99.90;;;;;;5012564;28;20042;-65
2022/09/20 07:58:22;;;;;;;7.38;1.27;;;15.30;99.90;;;;;;5023392;28;20029;-64
2022/09/20 08:00:55;;;;;;;6.75;1.40;;;15.30;99.90;;;;;;5030400;28;20502;-65
2022/09/20 08:03:22;;;;;;;10.02;2.03;;;15.30;99.90;;;;;;5030674;28;20084;-65
2022/09/20 08:05:51;;;;;;;10.00;1.40;;;15.50;99.90;;;;;;5030629;28;20037;-64
2022/09/20 08:08:17;;;;;;;6.07;1.50;;;15.50;99.90;;;;;;5030825;28;20052;-65
2022/09/20 08:10:44;;;;;;;5.68;1.23;;;15.20;99.90;;;;;;5029950;28;20110;-64
2022/09/20 08:13:13;;;;;;;5.30;1.38;;;15.10;99.90;;;;;;5030655;28;20041;-65
2022/09/20 08:15:39;;;;;;;4.25;1.10;;;15.00;99.90;;;;;;5034424;28;20060;-65
2022/09/20 08:18:07;;;;;;;6.22;1.50;;;15.20;10.40;;;;;;5017113;28;20661;-65
2022/09/20 08:20:36;;;;;;;4.40;1.00;;;14.90;71.50;;;;;;5034539;28;20471;-65
2022/09/20 08:23:02;;;;;;;5.88;1.30;;;14.80;99.90;;;;;;5034218;28;20049;-64
2022/09/20 08:25:28;;;;;;;4.47;0.80;;;15.00;99.90;;;;;;5034757;28;20099;-65
2022/09/20 08:27:54;;;;;;;4.72;1.13;;;15.10;1.00;;;;;;5034579;28;20052;-65
2022/09/20 08:30:20;;;;;;;6.18;1.27;;;15.10;99.90;;;;;;5034151;28;20037;-64
2022/09/20 08:32:45;;;;;;;3.33;1.00;;;15.10;99.90;;;;;;5033212;28;20083;-64
2022/09/20 08:35:13;;;;;;;4.13;1.00;;;15.30;1.00;;;;;;5034575;28;20045;-65
2022/09/20 08:37:39;;;;;;;4.57;1.30;;;15.40;34.30;;;;;;5034288;28;20462;-65
2022/09/20 08:40:05;;;;;;;3.17;1.10;;;15.30;1.00;;;;;;5033947;28;20030;-65
2022/09/20 08:42:35;;;;;;;5.57;0.95;;;15.30;99.90;;;;;;5033777;28;20052;-64
2022/09/20 08:45:10;;;;;;;5.13;1.05;;;15.40;99.90;;;;;;5016756;28;20077;-65
2022/09/20 08:47:44;;;;;;;4.55;1.10;;;15.60;99.90;;;;;;5021801;28;20044;-65
2022/09/20 08:50:13;;;;;;;5.32;1.45;;;15.60;94.40;;;;;;5032582;28;20049;-65
2022/09/20 08:52:39;;;;;;;6.38;1.30;;;15.60;92.40;;;;;;5034022;28;20063;-65
2022/09/20 08:55:15;;;;;;;5.20;1.17;;;15.90;1.00;;;;;;5033877;28;20132;-65
2022/09/20 08:57:41;;;;;;;;;;;15.70;54.10;;;;;;5034236;28;20511;-65
2022/09/20 09:00:18;;;;;;;6.60;1.27;;;15.60;1.00;;;;;;5033768;28;20027;-65
2022/09/20 09:02:44;;;;;;;5.85;1.45;;;15.70;1.00;;;;;;5033895;28;20045;-65
2022/09/20 09:05:32;;;;;;;4.97;1.30;;;15.70;1.00;;;;;;5034159;28;20034;-65
2022/09/20 09:08:01;;;;;;;5.75;1.35;;;15.50;1.00;;;;;;5033639;28;20076;-65
2022/09/20 09:10:35;;;;;;;9.15;1.50;;;15.80;1.00;;;;;;5032720;28;20435;-65
2022/09/20 09:13:01;;;;;;;13.55;1.63;;;15.50;1.00;;;;;;5033688;28;20053;-65
2022/09/20 09:15:32;;;;;;;6.88;1.38;;;15.80;99.90;;;;;;5032410;28;20048;-65
2022/09/20 09:17:58;;;;;;;4.30;1.35;;;15.60;99.90;;;;;;5033914;28;20119;-65
2022/09/20 09:20:24;;;;;;;5.18;1.30;;;15.80;43.70;;;;;;5015853;28;20037;-64
2022/09/20 09:23:20;;;;;;;5.00;1.00;;;16.00;1.00;;;;;;5033514;28;20148;-65
2022/09/20 09:25:45;;;;;;;6.95;1.20;;;16.00;99.90;;;;;;5018573;28;20123;-65
2022/09/20 09:28:13;;;;;;;4.95;1.40;;;15.90;1.00;;;;;;5033228;28;20187;-65
2022/09/20 09:30:46;;;;;;;5.57;1.25;;;16.10;99.90;;;;;;5033257;28;20052;-65
2022/09/20 09:33:29;;;;;;;7.15;1.63;;;16.10;18.00;;;;;;5032948;28;20041;-65
2022/09/20 09:35:58;;;;;;;6.85;1.48;;;16.20;99.90;;;;;;5033605;28;20029;-65
2022/09/20 09:38:26;;;;;;;4.03;1.20;;;15.90;1.00;;;;;;5033514;28;20103;-65
2022/09/20 09:40:55;;;;;;;4.63;1.30;;;15.80;99.90;;;;;;5032911;28;20064;-65
2022/09/20 09:43:27;;;;;;;6.97;1.10;;;15.60;1.00;;;;;;5030752;28;20083;-65
2022/09/20 09:45:54;;;;;;;6.35;1.30;;;15.40;99.90;;;;;;5003528;28;20041;-64
2022/09/20 09:48:22;;;;;;;3.67;1.15;;;15.50;99.90;;;;;;5033268;28;20498;-65
2022/09/20 09:50:48;;;;;;;11.07;1.80;;;15.20;99.90;;;;;;5032597;28;20403;-64
2022/09/20 09:53:25;;;;;;;6.15;1.60;;;14.60;99.90;;;;;;5020125;28;20038;-65
2022/09/20 09:56:21;;;;;;;6.28;1.63;;;14.40;99.90;;;;;;5031235;28;20034;-65
2022/09/20 09:58:57;;;;;;;6.43;1.65;;;14.20;99.90;;;;;;4997549;28;20053;-65
2022/09/20 10:01:38;;;;;;;;;;;14.60;99.90;;;;;;5029472;28;20044;-64
2022/09/20 10:04:23;;;;;;;5.65;1.50;;;14.10;99.90;;;;;;5033272;28;19917;-65
2022/09/20 10:07:00;;;;;;;6.65;1.35;;;14.60;99.90;;;;;;5033015;28;20057;-65
2022/09/20 10:09:35;;;;;;;6.43;1.67;;;14.20;99.90;;;;;;5032645;28;20045;-64
2022/09/20 10:12:27;;;;;;;10.63;1.30;;;14.10;99.90;;;;;;5027291;28;20049;-65
2022/09/20 10:15:06;;;;;;;3.97;1.35;;;14.20;99.90;;;;;;5013075;28;20042;-64
2022/09/20 10:17:51;;;;;;;7.65;1.67;;;14.80;99.90;;;;;;5024215;28;20034;-65
2022/09/20 10:20:32;;;;;;;8.52;1.75;;;14.50;99.90;;;;;;5019637;28;20426;-65
2022/09/20 10:23:10;;;;;;;5.75;1.73;;;15.10;99.90;;;;;;5032860;28;20568;-65
2022/09/20 10:25:46;;;;;;;7.53;1.60;;;15.00;99.90;;;;;;5032474;28;20045;-65
2022/09/20 10:29:04;;;;;;;5.93;1.65;;;14.80;99.90;;;;;;5032578;28;20049;-65
2022/09/20 10:31:42;;;;;;;7.03;1.50;;;15.50;99.90;;;;;;4958564;28;20050;-65
2022/09/20 10:34:18;;;;;;;8.63;1.75;;;15.60;99.90;;;;;;4936073;29;20047;-65
2022/09/20 10:36:54;;;;;;;6.72;1.55;;;15.10;99.90;;;;;;4988527;28;20129;-65
2022/09/20 10:39:33;;;;;;;6.40;1.27;;;15.40;99.90;;;;;;5011417;28;20407;-65
2022/09/20 10:45:28;;;;;;;9.75;1.30;;;16.10;99.90;;;;;;5031775;28;20543;-65
2022/09/20 10:48:08;;;;;;;6.25;1.50;;;15.90;99.90;;;;;;5032462;28;20076;-65
2022/09/20 10:50:57;;;;;;;7.60;1.30;;;16.00;99.90;;;;;;5030397;28;20402;-65
2022/09/20 10:53:54;;;;;;;8.40;1.63;;;16.00;99.90;;;;;;5028439;28;20037;-65
2022/09/20 10:56:27;;;;;;;;;;;16.60;99.90;;;;;;5024374;28;20054;-65
2022/09/20 10:59:23;;;;;;;5.55;1.45;;;16.60;99.90;;;;;;5012333;28;20402;-65
2022/09/20 11:02:12;;;;;;;8.93;1.48;;;16.30;99.90;;;;;;5025330;28;20431;-66
2022/09/20 11:04:52;;;;;;;7.30;1.58;;;16.60;99.90;;;;;;5026460;28;20117;-65
2022/09/20 11:07:35;;;;;;;7.70;1.20;;;16.70;99.90;;;;;;5031877;28;20041;-65
2022/09/20 11:10:15;;;;;;;6.25;1.70;;;16.60;99.90;;;;;;5013933;28;20045;-65
2022/09/20 11:12:48;;;;;;;4.65;1.33;;;16.20;99.90;;;;;;5011811;28;20065;-65
2022/09/20 11:15:31;;;;;;;8.27;1.50;;;16.30;99.90;;;;;;5012050;28;20124;-65
2022/09/20 11:18:12;;;;;;;3.65;1.30;;;16.70;99.90;;;;;;5031898;28;20042;-65
2022/09/20 11:20:48;;;;;;;5.70;1.50;;;16.70;99.90;;;;;;5031779;28;20482;-65
2022/09/20 11:23:24;;;;;;;6.43;1.30;;;16.70;99.90;;;;;;5028086;28;20044;-66
2022/09/20 11:25:55;;;;;;;10.07;1.65;;;16.80;99.90;;;;;;5013667;28;20410;-66
2022/09/20 11:28:26;;;;;;;7.25;1.52;;;16.40;99.90;;;;;;5031644;28;20050;-66
2022/09/20 11:31:19;;;;;;;9.27;1.48;;;16.80;99.90;;;;;;5030678;28;20037;-66
2022/09/20 11:33:52;;;;;;;6.25;1.50;;;16.40;99.90;;;;;;5031672;28;20045;-66
2022/09/20 11:36:56;;;;;;;5.10;1.50;;;16.50;99.90;;;;;;5031411;28;20048;-66
2022/09/20 11:39:29;;;;;;;4.63;1.30;;;16.80;99.90;;;;;;5031348;28;20498;-66
2022/09/20 11:41:58;;;;;;;6.28;1.42;;;16.70;99.90;;;;;;5031259;28;20084;-66
2022/09/20 11:44:24;;;;;;;3.03;1.00;;;16.60;99.90;;;;;;5031279;28;20049;-66
2022/09/20 11:47:04;;;;;;;5.65;1.15;;;16.50;99.90;;;;;;5031093;28;20060;-66
2022/09/20 11:49:48;;;;;;;4.93;1.00;;;16.60;99.90;;;;;;5031007;28;20077;-66
2022/09/20 11:52:29;;;;;;;2.92;1.20;;;16.80;99.90;;;;;;5030224;28;20037;-66
2022/09/20 11:55:10;;;;;;;6.45;1.50;;;16.90;99.90;;;;;;5031050;28;20049;-66
2022/09/20 11:57:36;;;;;;;6.75;1.50;;;16.70;1.00;;;;;;5015676;28;20048;-65
2022/09/20 12:00:06;;;;;;;6.30;1.30;;;16.90;1.00;;;;;;5010217;28;20030;-66
2022/09/20 12:02:52;;;;;;;8.75;1.65;;;16.80;99.90;;;;;;5028789;28;20579;-65
2022/09/20 12:05:37;;;;;;;7.93;1.25;;;16.90;99.90;;;;;;5018397;28;20072;-65
2022/09/20 12:08:21;;;;;;;4.30;1.08;;;17.10;99.90;;;;;;5029929;28;20045;-66
2022/09/20 12:11:01;;;;;;;13.07;1.80;;;17.00;99.90;;;;;;5030190;28;20071;-66
2022/09/20 12:13:27;;;;;;;6.05;1.30;;;16.90;3.00;;;;;;5031072;28;20038;-66
2022/09/20 12:16:05;;;;;;;11.48;1.92;;;17.00;99.90;;;;;;5029782;28;20040;-65
2022/09/20 12:18:34;;;;;;;7.55;1.30;;;17.00;1.00;;;;;;5030421;28;20069;-66
2022/09/20 12:21:00;;;;;;;8.30;1.52;;;17.20;99.90;;;;;;5029937;28;20037;-65
2022/09/20 12:23:41;;;;;;;11.55;1.60;;;17.10;99.90;;;;;;5030766;28;20076;-66
2022/09/20 12:26:09;;;;;;;10.43;1.20;;;17.00;1.00;;;;;;5030517;28;20046;-66
2022/09/20 12:28:43;;;;;;;6.85;1.45;;;17.00;1.00;;;;;;5030685;28;20434;-65
2022/09/20 12:31:17;;;;;;;7.80;2.00;;;17.00;99.90;;;;;;5030283;28;20399;-65
2022/09/20 12:34:09;;;;;;;7.95;1.30;;;17.00;99.90;;;;;;5030150;28;20120;-65
2022/09/20 12:36:37;;;;;;;4.18;1.08;;;17.00;70.00;;;;;;5030731;28;20052;-65
2022/09/20 12:39:12;;;;;;;6.38;1.50;;;17.10;99.90;;;;;;5030894;28;20499;-66
2022/09/20 12:41:56;;;;;;;5.05;1.25;;;17.10;99.90;;;;;;5030255;28;20172;-71
2022/09/20 12:44:40;;;;;;;7.20;1.60;;;17.10;99.90;;;;;;5030575;28;20053;-70
2022/09/20 12:47:08;;;;;;;6.20;1.50;;;17.30;99.90;;;;;;5012616;28;20049;-70
2022/09/20 12:52:54;;;;;;;6.13;1.15;;;17.40;71.30;;;;;;5025765;28;20041;-70
2022/09/20 12:55:28;;;;;;;2.97;0.82;;;17.50;1.00;;;;;;5030219;28;20467;-69
2022/09/20 12:58:15;;;;;;;3.45;0.90;;;17.50;99.90;;;;;;5029643;28;20037;-70
2022/09/20 13:01:00;;;;;;;;;;;17.50;1.00;;;;;;5014997;28;20049;-70
2022/09/20 13:03:43;;;;;;;4.72;1.13;;;17.60;1.00;;;;;;5005185;28;19921;-70
2022/09/20 13:06:18;;;;;;;6.90;0.95;;;17.50;99.90;;;;;;5016506;28;20053;-70
2022/09/20 13:09:00;;;;;;;4.18;1.10;;;17.40;99.90;;;;;;5016481;28;20057;-70
2022/09/20 13:11:43;;;;;;;4.10;1.05;;;17.20;99.90;;;;;;5033196;28;20053;-71
2022/09/20 13:14:28;;;;;;;5.47;1.40;;;17.30;99.90;;;;;;5034075;28;20053;-71
2022/09/20 13:16:53;;;;;;;9.13;0.98;;;17.30;99.90;;;;;;5033723;28;20044;-65
2022/09/20 13:19:29;;;;;;;6.20;1.20;;;17.40;99.90;;;;;;5016174;28;20482;-66
2022/09/20 13:22:04;;;;;;;3.50;0.85;;;17.40;55.20;;;;;;5033430;28;20123;-65
2022/09/20 13:24:35;;;;;;;3.15;1.00;;;17.50;56.80;;;;;;5033552;28;20088;-65
2022/09/20 13:27:07;;;;;;;4.65;0.93;;;17.40;1.00;;;;;;5033376;28;20128;-66
2022/09/20 13:29:38;;;;;;;6.13;1.00;;;17.40;1.00;;;;;;5033301;28;20087;-65
2022/09/20 13:32:25;;;;;;;4.35;0.90;;;17.30;1.00;;;;;;5033196;28;20057;-66
2022/09/20 13:35:06;;;;;;;4.05;1.00;;;17.40;1.00;;;;;;5033363;28;20034;-65
2022/09/20 13:37:33;;;;;;;3.65;1.20;;;17.30;1.00;;;;;;5033743;28;20111;-66
2022/09/20 13:39:59;;;;;;;7.07;1.40;;;17.30;1.00;;;;;;5033431;28;20045;-66
2022/09/20 13:42:28;;;;;;;6.30;1.10;;;17.30;1.00;;;;;;5033084;28;20506;-66
2022/09/20 13:44:57;;;;;;;4.80;1.10;;;17.30;1.00;;;;;;5033245;28;20043;-66
2022/09/20 13:47:30;;;;;;;7.70;1.15;;;17.30;1.00;;;;;;5033396;28;20403;-66
2022/09/20 13:50:18;;;;;;;7.45;1.60;;;17.20;1.00;;;;;;5031853;28;20056;-66
2022/09/20 13:52:50;;;;;;;10.50;1.38;;;17.10;1.00;;;;;;5025308;28;20122;-66
2022/09/20 13:55:45;;;;;;;6.75;1.30;;;17.10;1.00;;;;;;5032915;28;20060;-65
2022/09/20 13:58:19;;;;;;;7.82;1.13;;;17.10;1.00;;;;;;5030948;28;20045;-66
2022/09/20 14:00:53;;;;;;;5.50;1.38;;;17.10;1.00;;;;;;5032798;28;20040;-66